Dart — OUOV2 — position and weather

sailwx.info

Track history (hours):
 
Tides and Currents Weather Stations Pressure Air Temp Water Temp Dewpoint Dewpoint Depression Visibility Wind Speed Wind Dir Waves Ship Positions

Dart

Last reported at 2017-Aug-23 15:30 UTC. Time now 2017-Aug-23 15:44 UTC.
Position N 65°22' E 012°02'.

Length 66 m; draft 4 m.

Type: Tanker. MMSI: 219416000.

Date/timePositionNaut miles runAvg speedWind from/ knotsBaromVisibWave heightAir tempDewpointWater temp
2017-Aug-23 15:30N 65°22' E 012°02'5 9.4
2017-Aug-23 15:00N 65°26' E 011°56'10 9.6
2017-Aug-23 14:00N 65°34' E 012°07'510.1
2017-Aug-23 13:30N 65°39' E 012°12'5 9.9
2017-Aug-23 13:00N 65°43' E 012°17'5 9.7
2017-Aug-23 12:30N 65°48' E 012°20'5 9.2
2017-Aug-23 11:59N 65°53' E 012°22'4 8.9
2017-Aug-23 11:30N 65°57' E 012°25'5 9.8
2017-Aug-23 11:00N 66°01' E 012°32'3 6.2
2017-Aug-23 10:29N 66°01' E 012°40'0 0.0
2017-Aug-23 09:59N 66°01' E 012°40'0 0.0
2017-Aug-23 09:29N 66°01' E 012°40'0 0.0
2017-Aug-23 08:59N 66°01' E 012°40'0 0.0
2017-Aug-23 08:29N 66°01' E 012°40'0 0.0
2017-Aug-23 07:56N 66°01' E 012°40'0 0.0
2017-Aug-23 07:29N 66°01' E 012°40'0 0.0
2017-Aug-23 06:56N 66°01' E 012°40'0 0.0
2017-Aug-23 06:29N 66°01' E 012°40'0 0.0
2017-Aug-23 05:59N 66°01' E 012°40'1 1.1
2017-Aug-23 05:30N 66°02' E 012°39'5 9.3
2017-Aug-23 05:00N 66°06' E 012°43'5 9.4
2017-Aug-23 04:30N 66°09' E 012°53'4 7.7
2017-Aug-23 04:00N 66°10' E 013°02'5 9.5
2017-Aug-23 03:30N 66°12' E 013°12'5 9.2
2017-Aug-23 02:59N 66°14' E 013°22'510.1
2017-Aug-23 02:30N 66°15' E 013°35'510.5
2017-Aug-23 02:00N 66°15' E 013°48'510.0
2017-Aug-23 01:30N 66°17' E 013°59'4 8.8
2017-Aug-23 01:00N 66°20' E 014°08'0 0.0
2017-Aug-23 00:29N 66°20' E 014°08'0 0.0
2017-Aug-22 23:59N 66°20' E 014°08'0 0.0
2017-Aug-22 23:29N 66°20' E 014°08'0 0.0
2017-Aug-22 22:59N 66°20' E 014°08'0 0.0
2017-Aug-22 22:29N 66°20' E 014°08'0 0.0
2017-Aug-22 21:59N 66°20' E 014°08'0 0.0
2017-Aug-22 21:29N 66°20' E 014°08'0 0.0
2017-Aug-22 20:59N 66°20' E 014°08'2 4.3
2017-Aug-22 20:29N 66°18' E 014°04'5 9.5
2017-Aug-22 20:00N 66°16' E 013°54'5 9.5
2017-Aug-22 19:30N 66°15' E 013°42'5 9.6
2017-Aug-22 19:00N 66°15' E 013°31'5 9.3
2017-Aug-22 18:30N 66°14' E 013°19'4 9.1
2017-Aug-22 18:00N 66°11' E 013°10'4 8.6
2017-Aug-22 17:30N 66°10' E 013°01'4 8.3
2017-Aug-22 17:00N 66°08' E 012°51'4 8.5
2017-Aug-22 16:30N 66°06' E 012°43'4 8.6
2017-Aug-22 15:59N 66°02' E 012°36'4 8.6
2017-Aug-22 15:30N 65°59' E 012°29'4 8.9
2017-Aug-22 15:00N 65°55' E 012°23'4 8.5
2017-Aug-22 14:30N 65°51' E 012°22'5 9.2
2017-Aug-22 14:00N 65°47' E 012°19'4 8.7
2017-Aug-22 13:30N 65°42' E 012°16'4 8.9
2017-Aug-22 13:00N 65°38' E 012°13'4 8.2
2017-Aug-22 12:29N 65°35' E 012°07'4 8.7
2017-Aug-22 12:00N 65°31' E 012°01'5 9.3
2017-Aug-22 11:30N 65°27' E 011°56'5 9.0
2017-Aug-22 11:00N 65°23' E 011°59'3 6.8
2017-Aug-22 10:30N 65°20' E 012°01'5 9.2
2017-Aug-22 10:00N 65°15' E 011°56'5 9.3
2017-Aug-22 09:30N 65°11' E 011°52'5 9.2
2017-Aug-22 09:00N 65°07' E 011°49'4 9.0
2017-Aug-22 08:30N 65°03' E 011°44'5 9.4
2017-Aug-22 08:00N 64°59' E 011°36'5 9.3
2017-Aug-22 07:30N 64°56' E 011°28'5 9.4
2017-Aug-22 07:00N 64°53' E 011°19'510.1
2017-Aug-22 06:30N 64°50' E 011°11'5 9.3
2017-Aug-22 06:00N 64°47' E 011°03'5 9.0
2017-Aug-22 05:30N 64°43' E 010°56'4 9.0
2017-Aug-22 05:00N 64°40' E 010°48'4 9.0
2017-Aug-22 04:30N 64°37' E 010°40'4 8.7
2017-Aug-22 04:00N 64°34' E 010°33'4 8.9
2017-Aug-22 03:30N 64°31' E 010°26'4 8.5
2017-Aug-22 03:00N 64°28' E 010°19'4 8.3
2017-Aug-22 02:30N 64°25' E 010°12'4 8.3
2017-Aug-22 02:00N 64°22' E 010°06'4 8.7
2017-Aug-22 01:30N 64°19' E 009°59'4 8.5
2017-Aug-22 01:00N 64°16' E 009°52'4 8.5
2017-Aug-22 00:30N 64°12' E 009°47'5 9.3
2017-Aug-22 00:00N 64°08' E 009°42'5 9.0
2017-Aug-21 23:30N 64°04' E 009°37'4 8.7
2017-Aug-21 23:00N 64°00' E 009°33'4 8.9
2017-Aug-21 22:30N 63°56' E 009°29'5 9.2
2017-Aug-21 21:59N 63°52' E 009°24'4 8.7
2017-Aug-21 21:29N 63°48' E 009°20'4 8.9
2017-Aug-21 21:00N 63°44' E 009°17'4 8.7
2017-Aug-21 20:30N 63°39' E 009°16'5 8.9
2017-Aug-21 20:00N 63°35' E 009°16'4 9.1
2017-Aug-21 19:30N 63°31' E 009°10'511.0
2017-Aug-21 19:01N 63°29' E 008°59'5 9.9
2017-Aug-21 18:30N 63°27' E 008°49'5 9.5
2017-Aug-21 18:00N 63°25' E 008°39'5 9.7
2017-Aug-21 17:29N 63°23' E 008°29'4 9.3
2017-Aug-21 17:00N 63°21' E 008°21'5 9.6
2017-Aug-21 16:30N 63°17' E 008°13'5 9.4
2017-Aug-21 16:00N 63°15' E 008°04'5 9.5
2017-Aug-21 15:30N 63°13' E 007°55'5 9.3
2017-Aug-21 15:00N 63°10' E 007°46'5 9.4
2017-Aug-21 14:30N 63°08' E 007°37'5 9.2
2017-Aug-21 14:00N 63°05' E 007°29'4 9.0
2017-Aug-21 13:30N 63°03' E 007°20'5 9.0
2017-Aug-21 13:00N 63°02' E 007°10'4 8.9
2017-Aug-21 12:30N 62°60' E 007°01'4 8.8
2017-Aug-21 12:00N 62°58' E 006°52'4 8.8
2017-Aug-21 11:30N 62°55' E 006°46'4 8.9
2017-Aug-21 11:00N 62°51' E 006°41'5 9.4
2017-Aug-21 10:30N 62°47' E 006°36'5 9.5
2017-Aug-21 10:00N 62°43' E 006°30'5 9.7
2017-Aug-21 09:30N 62°39' E 006°24'5 9.9
2017-Aug-21 09:00N 62°36' E 006°16'3 6.8
2017-Aug-21 08:30N 62°33' E 006°10'5 9.2
2017-Aug-21 07:59N 62°29' E 006°07'4 8.8
2017-Aug-21 07:30N 62°25' E 006°03'5 9.6
2017-Aug-21 07:00N 62°21' E 006°08'5 9.6
2017-Aug-21 06:30N 62°17' E 006°01'5 9.5
2017-Aug-21 06:00N 62°14' E 005°54'5 9.4
2017-Aug-21 05:29N 62°12' E 005°45'5 9.4
2017-Aug-21 05:00N 62°11' E 005°35'4 8.8
2017-Aug-21 04:30N 62°11' E 005°26'4 7.6
2017-Aug-21 04:00N 62°12' E 005°18'4 8.3
2017-Aug-21 03:30N 62°13' E 005°10'4 8.4
2017-Aug-21 03:00N 62°10' E 005°04'4 8.7
2017-Aug-21 02:30N 62°06' E 005°06'4 8.7
2017-Aug-21 02:00N 62°02' E 005°09'5 9.1
2017-Aug-21 01:30N 61°57' E 005°09'4 8.3
2017-Aug-21 01:00N 61°53' E 005°10'4 7.5
2017-Aug-21 00:30N 61°51' E 005°16'4 8.8
2017-Aug-21 00:00N 61°48' E 005°08'5 9.3
2017-Aug-20 23:30N 61°45' E 005°01'4 8.6
2017-Aug-20 23:00N 61°41' E 004°58'4 7.8
2017-Aug-20 22:30N 61°38' E 005°01'2 1.7
2017-Aug-20 21:25N 61°37' E 005°04'0 0.0
2017-Aug-20 20:55N 61°37' E 005°04'0 0.0
2017-Aug-20 20:25N 61°37' E 005°04'0 0.0
2017-Aug-20 19:34N 61°37' E 005°04'0 0.0
2017-Aug-20 18:52N 61°37' E 005°04'0 0.0
2017-Aug-20 18:25N 61°37' E 005°04'0 0.0
2017-Aug-20 17:49N 61°37' E 005°04'2 6.4
2017-Aug-20 17:30N 61°37' E 005°00'5 9.6
2017-Aug-20 17:00N 61°42' E 004°57'510.4
2017-Aug-20 16:30N 61°47' E 005°03'510.3
2017-Aug-20 16:00N 61°49' E 005°12'3 6.0
2017-Aug-20 15:29N 61°52' E 005°13'4 8.7
2017-Aug-20 15:00N 61°56' E 005°07'510.3
2017-Aug-20 14:30N 62°01' E 005°09'510.6
2017-Aug-20 14:00N 62°06' E 005°06'5 9.7
2017-Aug-20 13:30N 62°11' E 005°04'4 9.1
2017-Aug-20 13:00N 62°14' E 005°12'5 9.5
2017-Aug-20 12:27N 62°11' E 005°21'4 9.6
2017-Aug-20 12:00N 62°12' E 005°30'510.0
2017-Aug-20 11:30N 62°11' E 005°40'5 9.8
2017-Aug-20 11:00N 62°13' E 005°50'5 9.3
2017-Aug-20 10:29N 62°16' E 005°57'5 9.3
2017-Aug-20 10:00N 62°19' E 006°04'4 8.3
2017-Aug-20 09:30N 62°23' E 006°05'4 8.6
2017-Aug-20 09:00N 62°28' E 006°04'4 8.5
2017-Aug-20 08:30N 62°31' E 006°09'5 9.1
2017-Aug-20 07:59N 62°35' E 006°14'4 9.0
2017-Aug-20 07:30N 62°38' E 006°21'4 8.8
2017-Aug-20 07:00N 62°41' E 006°27'4 9.0
2017-Aug-20 06:30N 62°45' E 006°32'5 9.0
2017-Aug-20 06:00N 62°49' E 006°37'4 8.9
2017-Aug-20 05:30N 62°53' E 006°43'5 8.8
2017-Aug-20 05:00N 62°56' E 006°48'4 8.1
2017-Aug-20 04:30N 62°59' E 006°55'4 7.9
2017-Aug-20 04:00N 63°00' E 007°03'4 8.2
2017-Aug-20 03:30N 63°02' E 007°12'4 8.2
2017-Aug-20 03:00N 63°03' E 007°20'4 8.5
2017-Aug-20 02:30N 63°05' E 007°28'4 8.6
2017-Aug-20 02:00N 63°07' E 007°37'4 7.8
2017-Aug-20 01:30N 63°04' E 007°41'1 1.4
2017-Aug-20 00:59N 63°03' E 007°40'0 0.0
2017-Aug-20 00:29N 63°03' E 007°40'0 0.0
2017-Aug-19 23:59N 63°03' E 007°40'0 0.0
2017-Aug-19 23:29N 63°03' E 007°40'0 0.0
2017-Aug-19 22:59N 63°03' E 007°40'0 0.0
2017-Aug-19 22:29N 63°03' E 007°40'0 0.0
2017-Aug-19 21:59N 63°03' E 007°40'0 0.0
2017-Aug-19 21:29N 63°03' E 007°40'0 0.0
2017-Aug-19 20:59N 63°03' E 007°40'0 0.0
2017-Aug-19 20:29N 63°03' E 007°40'0 0.0
2017-Aug-19 19:59N 63°03' E 007°40'0 0.0
2017-Aug-19 19:29N 63°03' E 007°40'0 0.0
2017-Aug-19 18:59N 63°03' E 007°40'0 0.0
2017-Aug-19 18:29N 63°03' E 007°40'2 3.7
2017-Aug-19 18:00N 63°05' E 007°41'3 7.0
2017-Aug-19 17:31N 63°07' E 007°34'510.0
2017-Aug-19 17:01N 63°04' E 007°25'5 9.9
2017-Aug-19 16:30N 63°03' E 007°15'5 9.9
2017-Aug-19 16:00N 63°01' E 007°05'510.0
2017-Aug-19 15:30N 62°59' E 006°54'5 9.8
2017-Aug-19 15:00N 62°55' E 006°48'10 9.8
2017-Aug-19 14:00N 62°47' E 006°36'5 9.8
2017-Aug-19 13:30N 62°43' E 006°30'5 9.8
2017-Aug-19 13:00N 62°39' E 006°24'5 9.4
2017-Aug-19 12:30N 62°36' E 006°16'4 9.1
2017-Aug-19 12:00N 62°32' E 006°10'5 8.9
2017-Aug-19 11:30N 62°28' E 006°05'4 8.9
2017-Aug-19 11:00N 62°26' E 005°56'4 8.7
2017-Aug-19 10:30N 62°24' E 005°49'5 9.0
2017-Aug-19 10:00N 62°20' E 005°45'4 9.0
2017-Aug-19 09:30N 62°18' E 005°36'5 9.1
2017-Aug-19 09:00N 62°17' E 005°26'5 9.4
2017-Aug-19 08:30N 62°16' E 005°17'5 9.7
2017-Aug-19 07:59N 62°13' E 005°08'5 9.1
2017-Aug-19 07:30N 62°09' E 005°04'5 9.7
2017-Aug-19 07:00N 62°04' E 005°07'5 9.7
2017-Aug-19 06:30N 61°59' E 005°10'4 9.0
2017-Aug-19 06:00N 61°55' E 005°07'5 9.0
2017-Aug-19 05:30N 61°52' E 005°15'3 6.5
2017-Aug-19 05:00N 61°49' E 005°12'5 9.4
2017-Aug-19 04:30N 61°46' E 005°03'4 9.0
2017-Aug-19 04:00N 61°43' E 004°58'5 9.6
2017-Aug-19 03:30N 61°38' E 004°59'4 8.7
2017-Aug-19 03:00N 61°34' E 004°59'5 9.3
2017-Aug-19 02:30N 61°29' E 004°59'5 9.6
2017-Aug-19 02:00N 61°24' E 004°59'5 9.8
2017-Aug-19 01:30N 61°20' E 005°03'4 7.8
2017-Aug-19 01:00N 61°17' E 004°57'4 7.9
2017-Aug-19 00:30N 61°13' E 004°57'5 9.6
2017-Aug-19 00:00N 61°09' E 005°01'5 9.5
2017-Aug-18 23:30N 61°04' E 005°00'5 8.9
2017-Aug-18 22:59N 61°02' E 004°53'4 8.5
2017-Aug-18 22:30N 60°59' E 004°46'5 9.8
2017-Aug-18 22:00N 60°54' E 004°46'5 9.5
2017-Aug-18 21:30N 60°49' E 004°44'510.4
2017-Aug-18 21:00N 60°44' E 004°48'510.1
2017-Aug-18 20:30N 60°40' E 004°52'510.0
2017-Aug-18 20:00N 60°35' E 004°55'510.1
2017-Aug-18 19:30N 60°30' E 004°59'510.3
2017-Aug-18 19:00N 60°26' E 005°03'5 9.4
2017-Aug-18 18:29N 60°22' E 005°10'5 9.2
2017-Aug-18 18:00N 60°18' E 005°12'5 9.2
2017-Aug-18 17:29N 60°13' E 005°11'5 9.9
2017-Aug-18 17:00N 60°09' E 005°16'5 9.9
2017-Aug-18 16:30N 60°05' E 005°20'510.2
2017-Aug-18 16:00N 59°59' E 005°22'510.0
2017-Aug-18 15:30N 59°56' E 005°29'510.0
2017-Aug-18 15:00N 59°51' E 005°33'9 9.2
2017-Aug-18 14:00N 59°43' E 005°27'510.5
2017-Aug-18 13:30N 59°39' E 005°20'510.2
2017-Aug-18 13:00N 59°34' E 005°15'5 9.6
2017-Aug-18 12:29N 59°30' E 005°13'510.1
2017-Aug-18 11:59N 59°25' E 005°15'1 2.5
2017-Aug-18 11:30N 59°24' E 005°16'0 0.0
2017-Aug-18 11:00N 59°24' E 005°16'0 0.0
2017-Aug-18 10:30N 59°24' E 005°16'3 7.0
2017-Aug-18 10:00N 59°21' E 005°19'5 9.3
2017-Aug-18 09:30N 59°16' E 005°20'2 4.6
2017-Aug-18 09:00N 59°14' E 005°21'5 9.5
2017-Aug-18 08:30N 59°09' E 005°23'4 8.9
2017-Aug-18 08:01N 59°07' E 005°30'5 9.3
2017-Aug-18 07:30N 59°03' E 005°36'4 7.0
2017-Aug-18 06:59N 58°60' E 005°40'0 0.0
2017-Aug-18 06:29N 58°60' E 005°40'0 0.0
2017-Aug-18 05:59N 58°60' E 005°40'0 0.0
2017-Aug-18 05:29N 58°60' E 005°40'0 0.0
2017-Aug-18 04:59N 58°60' E 005°40'0 0.0
2017-Aug-18 04:29N 58°60' E 005°40'0 0.0
2017-Aug-18 03:59N 58°60' E 005°40'0 0.0
2017-Aug-18 03:29N 58°60' E 005°40'0 0.3
2017-Aug-18 03:00N 59°00' E 005°40'4 7.5
2017-Aug-18 02:30N 59°02' E 005°34'5 9.7
2017-Aug-18 02:00N 58°57' E 005°33'2 4.3
2017-Aug-18 01:29N 58°55' E 005°36'0 0.0
2017-Aug-18 00:59N 58°55' E 005°36'0 0.0
2017-Aug-18 00:29N 58°55' E 005°36'0 0.0
2017-Aug-17 23:59N 58°55' E 005°36'0 0.0
2017-Aug-17 23:29N 58°55' E 005°36'0 0.0
2017-Aug-17 22:59N 58°55' E 005°36'0 0.0
2017-Aug-17 22:29N 58°55' E 005°36'0 0.0
2017-Aug-17 21:59N 58°55' E 005°36'0 0.0
2017-Aug-17 21:29N 58°55' E 005°36'0 0.0
2017-Aug-17 20:59N 58°55' E 005°36'0 0.0
2017-Aug-17 20:29N 58°55' E 005°36'0 0.0
2017-Aug-17 20:00N 58°55' E 005°36'3 5.3
2017-Aug-17 19:30N 58°58' E 005°33'5 9.7
2017-Aug-17 19:00N 59°02' E 005°32'5 9.4
2017-Aug-17 18:31N 59°07' E 005°31'5 9.4
2017-Aug-17 18:00N 59°12' E 005°29'4 8.6
2017-Aug-17 17:29N 59°15' E 005°23'4 7.5
2017-Aug-17 17:00N 59°18' E 005°20'510.0
2017-Aug-17 16:30N 59°23' E 005°17'2 4.8
2017-Aug-17 16:00N 59°25' E 005°14'0 0.0
2017-Aug-17 15:30N 59°25' E 005°14'0 0.0
2017-Aug-17 15:00N 59°25' E 005°14'0 0.0
2017-Aug-17 14:30N 59°25' E 005°14'0 0.0
2017-Aug-17 14:00N 59°25' E 005°14'0 0.0
2017-Aug-17 13:30N 59°25' E 005°14'0 0.0
2017-Aug-17 13:00N 59°25' E 005°14'0 0.0
2017-Aug-17 12:30N 59°25' E 005°14'0 0.0
2017-Aug-17 12:00N 59°25' E 005°14'0 0.0
2017-Aug-17 11:30N 59°25' E 005°14'0 0.0
2017-Aug-17 11:00N 59°25' E 005°14'4 7.8
2017-Aug-17 10:30N 59°21' E 005°19'4 9.1
2017-Aug-17 10:00N 59°17' E 005°19'0 0.0
2017-Aug-17 09:28N 59°17' E 005°19'0 0.0
2017-Aug-17 08:58N 59°17' E 005°19'0 0.0
2017-Aug-17 08:28N 59°17' E 005°19'0 0.0
2017-Aug-17 07:58N 59°17' E 005°19'0 0.0
2017-Aug-17 07:28N 59°17' E 005°19'0 0.0
2017-Aug-17 06:58N 59°17' E 005°19'0 0.0
2017-Aug-17 06:28N 59°17' E 005°19'0 0.0
2017-Aug-17 05:58N 59°17' E 005°19'0 0.0
2017-Aug-17 05:28N 59°17' E 005°19'0 0.0
2017-Aug-17 04:58N 59°17' E 005°19'0 0.0
2017-Aug-17 04:28N 59°17' E 005°19'0 0.0
2017-Aug-17 03:58N 59°17' E 005°19'0 0.0
2017-Aug-17 03:28N 59°17' E 005°19'0 0.0
2017-Aug-17 02:58N 59°17' E 005°19'0 0.0
2017-Aug-17 02:28N 59°17' E 005°19'0 0.0
2017-Aug-17 01:58N 59°17' E 005°19'0 0.0
2017-Aug-17 01:28N 59°17' E 005°19'0 0.0
2017-Aug-17 00:58N 59°17' E 005°19'0 0.0
2017-Aug-17 00:28N 59°17' E 005°19'0 0.0
2017-Aug-16 23:58N 59°17' E 005°19'0 0.0
2017-Aug-16 23:28N 59°17' E 005°19'0 0.0
2017-Aug-16 22:58N 59°17' E 005°19'0 0.0
2017-Aug-16 22:28N 59°17' E 005°19'0 0.0
2017-Aug-16 21:58N 59°17' E 005°19'0 0.0
2017-Aug-16 21:28N 59°17' E 005°19'0 0.0
2017-Aug-16 20:58N 59°17' E 005°19'0 0.0
2017-Aug-16 20:28N 59°17' E 005°19'0 0.0
2017-Aug-16 19:58N 59°17' E 005°19'0 0.0
2017-Aug-16 19:28N 59°17' E 005°19'0 0.0
2017-Aug-16 18:58N 59°17' E 005°19'0 0.0
2017-Aug-16 18:28N 59°17' E 005°19'0 0.0
2017-Aug-16 17:58N 59°17' E 005°19'0 0.0
2017-Aug-16 17:28N 59°17' E 005°19'0 0.0
2017-Aug-16 16:58N 59°17' E 005°19'0 0.0
2017-Aug-16 16:28N 59°17' E 005°19'0 0.0
2017-Aug-16 15:58N 59°17' E 005°19'0 0.0
2017-Aug-16 15:28N 59°17' E 005°19'0 0.0
2017-Aug-16 14:58N 59°17' E 005°19'0 0.0
2017-Aug-16 14:28N 59°17' E 005°19'0 0.0
2017-Aug-16 13:58N 59°17' E 005°19'0 0.0
2017-Aug-16 13:28N 59°17' E 005°19'0 0.0
2017-Aug-16 12:58N 59°17' E 005°19'0 0.0
2017-Aug-16 12:28N 59°17' E 005°19'0 0.0
2017-Aug-16 11:58N 59°17' E 005°19'0 0.0
2017-Aug-16 11:28N 59°17' E 005°19'0 0.0
2017-Aug-16 10:58N 59°17' E 005°19'0 0.0
2017-Aug-16 10:28N 59°17' E 005°19'0 0.4
2017-Aug-16 10:00N 59°17' E 005°19'4 8.6
2017-Aug-16 09:30N 59°21' E 005°19'5 9.0
2017-Aug-16 09:00N 59°25' E 005°14'5 9.5
2017-Aug-16 08:30N 59°30' E 005°12'4 8.9
2017-Aug-16 08:00N 59°34' E 005°13'5 9.4
2017-Aug-16 07:30N 59°38' E 005°18'5 9.4
2017-Aug-16 06:59N 59°42' E 005°24'5 9.6
2017-Aug-16 06:30N 59°46' E 005°20'5 9.7
2017-Aug-16 05:59N 59°51' E 005°16'5 9.3
2017-Aug-16 05:30N 59°55' E 005°11'4 7.4
2017-Aug-16 05:00N 59°58' E 005°15'5 9.1
2017-Aug-16 04:30N 60°02' E 005°19'5 9.7
2017-Aug-16 04:00N 60°07' E 005°18'5 9.6
2017-Aug-16 03:30N 60°11' E 005°13'5 9.4
2017-Aug-16 03:00N 60°15' E 005°09'5 9.2
2017-Aug-16 02:30N 60°20' E 005°12'4 7.7
2017-Aug-16 02:00N 60°23' E 005°09'5 9.3
2017-Aug-16 01:30N 60°26' E 005°02'5 9.4
2017-Aug-16 01:00N 60°30' E 004°58'5 9.4
2017-Aug-16 00:30N 60°35' E 004°54'5 9.5
2017-Aug-16 00:00N 60°39' E 004°51'5 9.2
2017-Aug-15 23:30N 60°44' E 004°48'5 9.6
2017-Aug-15 23:00N 60°48' E 004°44'4 8.6
2017-Aug-15 22:30N 60°52' E 004°46'5 9.4
2017-Aug-15 22:00N 60°57' E 004°45'4 8.6
2017-Aug-15 21:30N 61°01' E 004°50'510.0
2017-Aug-15 21:00N 61°04' E 004°58'5 9.2
2017-Aug-15 20:30N 61°08' E 005°02'4 9.0
2017-Aug-15 20:00N 61°12' E 004°59'4 8.7
2017-Aug-15 19:30N 61°16' E 004°55'5 9.1
2017-Aug-15 19:00N 61°19' E 005°03'4 8.5
2017-Aug-15 18:30N 61°23' E 005°01'4 8.8
2017-Aug-15 18:00N 61°27' E 004°59'5 8.9
2017-Aug-15 17:30N 61°31' E 005°00'4 8.4
2017-Aug-15 17:00N 61°35' E 004°57'4 8.4
2017-Aug-15 16:30N 61°40' E 004°59'4 8.2
2017-Aug-15 16:00N 61°44' E 004°58'5 9.1
2017-Aug-15 15:30N 61°47' E 005°04'5 9.7
2017-Aug-15 15:00N 61°50' E 005°13'3 5.6
2017-Aug-15 14:30N 61°52' E 005°12'4 7.8
2017-Aug-15 13:59N 61°56' E 005°07'4 8.6
2017-Aug-15 13:30N 61°60' E 005°10'5 9.4
2017-Aug-15 13:00N 62°04' E 005°07'5 9.2
2017-Aug-15 12:30N 62°09' E 005°05'4 7.5
2017-Aug-15 12:00N 62°12' E 005°06'5 9.2
2017-Aug-15 11:30N 62°15' E 005°14'5 9.2
2017-Aug-15 11:00N 62°17' E 005°23'5 9.7
2017-Aug-15 10:30N 62°18' E 005°33'5 9.9
2017-Aug-15 10:00N 62°19' E 005°44'4 8.6
2017-Aug-15 09:30N 62°23' E 005°48'5 9.5
2017-Aug-15 08:59N 62°26' E 005°56'5 9.6
2017-Aug-15 08:29N 62°28' E 006°05'4 9.0
2017-Aug-15 08:00N 62°32' E 006°10'5 9.6
2017-Aug-15 07:30N 62°36' E 006°16'510.0
2017-Aug-15 07:00N 62°39' E 006°24'5 9.9
2017-Aug-15 06:30N 62°44' E 006°30'5 9.8
2017-Aug-15 06:00N 62°48' E 006°36'5 9.8
2017-Aug-15 05:30N 62°52' E 006°42'5 9.8
2017-Aug-15 05:00N 62°56' E 006°48'5 9.1
2017-Aug-15 04:30N 62°59' E 006°55'5 9.5
2017-Aug-15 04:00N 63°01' E 007°05'5 9.5
2017-Aug-15 03:30N 63°03' E 007°14'5 9.5
2017-Aug-15 03:00N 63°04' E 007°24'5 9.5
2017-Aug-15 02:30N 63°07' E 007°33'4 7.2
2017-Aug-15 02:00N 63°06' E 007°41'3 4.9
2017-Aug-15 01:29N 63°03' E 007°40'0 0.0
2017-Aug-15 00:59N 63°03' E 007°40'0 0.0
2017-Aug-15 00:29N 63°03' E 007°40'0 0.0
2017-Aug-14 23:59N 63°03' E 007°40'0 0.0
2017-Aug-14 23:29N 63°03' E 007°40'0 0.0
2017-Aug-14 22:59N 63°03' E 007°40'0 0.0
2017-Aug-14 22:29N 63°03' E 007°40'0 0.0
2017-Aug-14 21:59N 63°03' E 007°40'0 0.0
2017-Aug-14 21:29N 63°03' E 007°40'2 4.1
2017-Aug-14 21:00N 63°05' E 007°41'4 8.4
2017-Aug-14 20:30N 63°09' E 007°44'5 9.1
2017-Aug-14 20:01N 63°12' E 007°52'5 9.2
2017-Aug-14 19:30N 63°15' E 008°01'5 9.1
2017-Aug-14 19:00N 63°17' E 008°10'4 8.9
2017-Aug-14 18:30N 63°19' E 008°17'4 8.7
2017-Aug-14 18:00N 63°22' E 008°25'5 8.9
2017-Aug-14 17:30N 63°24' E 008°34'4 8.4
2017-Aug-14 17:00N 63°26' E 008°43'4 8.4
2017-Aug-14 16:30N 63°27' E 008°51'4 8.4
2017-Aug-14 16:00N 63°29' E 009°00'4 8.0
2017-Aug-14 15:30N 63°31' E 009°08'4 7.1
2017-Aug-14 15:00N 63°33' E 009°15'5 7.5
2017-Aug-14 14:18N 63°35' E 009°25'2 8.0
2017-Aug-14 14:00N 63°37' E 009°28'5 9.2
2017-Aug-14 13:30N 63°42' E 009°30'5 9.0
2017-Aug-14 13:00N 63°46' E 009°32'4 8.3
2017-Aug-14 12:30N 63°50' E 009°37'4 8.6
2017-Aug-14 12:00N 63°53' E 009°44'4 8.7
2017-Aug-14 11:30N 63°57' E 009°49'4 8.6
2017-Aug-14 11:00N 63°60' E 009°56'4 8.3
2017-Aug-14 10:29N 64°03' E 010°02'3 7.1
2017-Aug-14 10:00N 64°06' E 010°01'4 8.0
2017-Aug-14 09:30N 64°09' E 010°07'4 8.5
2017-Aug-14 09:00N 64°13' E 010°12'4 8.1
2017-Aug-14 08:29N 64°16' E 010°19'4 8.0
2017-Aug-14 08:00N 64°19' E 010°24'4 7.8
2017-Aug-14 07:30N 64°22' E 010°28'4 7.9
2017-Aug-14 07:00N 64°26' E 010°27'3 6.6
2017-Aug-14 06:30N 64°29' E 010°32'3 7.1
2017-Aug-14 06:00N 64°32' E 010°35'3 6.4
2017-Aug-14 05:30N 64°35' E 010°39'3 6.5
2017-Aug-14 05:00N 64°38' E 010°42'3 6.0
2017-Aug-14 04:30N 64°40' E 010°47'3 6.2
2017-Aug-14 04:00N 64°42' E 010°52'3 6.9
2017-Aug-14 03:31N 64°44' E 010°58'4 7.6
2017-Aug-14 03:00N 64°47' E 011°04'4 8.3
2017-Aug-14 02:30N 64°50' E 011°11'4 7.9
2017-Aug-14 02:00N 64°53' E 011°18'4 8.4
2017-Aug-14 01:31N 64°56' E 011°25'4 8.6
2017-Aug-14 01:00N 64°58' E 011°34'4 8.3
2017-Aug-14 00:31N 65°01' E 011°41'4 8.8
2017-Aug-14 00:00N 65°05' E 011°46'5 9.4
2017-Aug-13 23:30N 65°09' E 011°50'4 8.6
2017-Aug-13 23:00N 65°13' E 011°54'4 8.6
2017-Aug-13 22:30N 65°17' E 011°58'4 8.6
2017-Aug-13 22:00N 65°21' E 012°02'4 7.4
2017-Aug-13 21:30N 65°24' E 011°58'4 8.0
2017-Aug-13 21:00N 65°28' E 011°57'4 8.1
2017-Aug-13 20:30N 65°32' E 012°02'4 7.8
2017-Aug-13 20:00N 65°35' E 012°08'4 8.6
2017-Aug-13 19:30N 65°38' E 012°13'5 9.1
2017-Aug-13 19:00N 65°43' E 012°16'5 9.0
2017-Aug-13 18:30N 65°47' E 012°20'4 8.9
2017-Aug-13 18:00N 65°51' E 012°22'4 8.4
2017-Aug-13 17:30N 65°56' E 012°24'4 7.9
2017-Aug-13 16:59N 65°59' E 012°28'4 8.1
2017-Aug-13 16:30N 66°02' E 012°35'4 8.1
2017-Aug-13 16:00N 66°05' E 012°41'4 8.0
2017-Aug-13 15:30N 66°08' E 012°48'  
Track history (hours):
 
Tides and Currents Weather Stations Pressure Air Temp Water Temp Dewpoint Dewpoint Depression Visibility Wind Speed Wind Dir Waves Ship Positions

Dart

Last reported at 2017-Aug-23 15:30 UTC. Time now 2017-Aug-23 15:44 UTC.
Position N 65°22' E 012°02'.

Length 66 m; draft 4 m.

Type: Tanker. MMSI: 219416000.

Date/timePositionNaut miles runAvg speedWind from/ knotsBaromVisibWave heightAir tempDewpointWater temp
2017-Aug-23 15:30N 65°22' E 012°02'5 9.4
2017-Aug-23 15:00N 65°26' E 011°56'10 9.6
2017-Aug-23 14:00N 65°34' E 012°07'510.1
2017-Aug-23 13:30N 65°39' E 012°12'5 9.9
2017-Aug-23 13:00N 65°43' E 012°17'5 9.7
2017-Aug-23 12:30N 65°48' E 012°20'5 9.2
2017-Aug-23 11:59N 65°53' E 012°22'4 8.9
2017-Aug-23 11:30N 65°57' E 012°25'5 9.8
2017-Aug-23 11:00N 66°01' E 012°32'3 6.2
2017-Aug-23 10:29N 66°01' E 012°40'0 0.0
2017-Aug-23 09:59N 66°01' E 012°40'0 0.0
2017-Aug-23 09:29N 66°01' E 012°40'0 0.0
2017-Aug-23 08:59N 66°01' E 012°40'0 0.0
2017-Aug-23 08:29N 66°01' E 012°40'0 0.0
2017-Aug-23 07:56N 66°01' E 012°40'0 0.0
2017-Aug-23 07:29N 66°01' E 012°40'0 0.0
2017-Aug-23 06:56N 66°01' E 012°40'0 0.0
2017-Aug-23 06:29N 66°01' E 012°40'0 0.0
2017-Aug-23 05:59N 66°01' E 012°40'1 1.1
2017-Aug-23 05:30N 66°02' E 012°39'5 9.3
2017-Aug-23 05:00N 66°06' E 012°43'5 9.4
2017-Aug-23 04:30N 66°09' E 012°53'4 7.7
2017-Aug-23 04:00N 66°10' E 013°02'5 9.5
2017-Aug-23 03:30N 66°12' E 013°12'5 9.2
2017-Aug-23 02:59N 66°14' E 013°22'510.1
2017-Aug-23 02:30N 66°15' E 013°35'510.5
2017-Aug-23 02:00N 66°15' E 013°48'510.0
2017-Aug-23 01:30N 66°17' E 013°59'4 8.8
2017-Aug-23 01:00N 66°20' E 014°08'0 0.0
2017-Aug-23 00:29N 66°20' E 014°08'0 0.0
2017-Aug-22 23:59N 66°20' E 014°08'0 0.0
2017-Aug-22 23:29N 66°20' E 014°08'0 0.0
2017-Aug-22 22:59N 66°20' E 014°08'0 0.0
2017-Aug-22 22:29N 66°20' E 014°08'0 0.0
2017-Aug-22 21:59N 66°20' E 014°08'0 0.0
2017-Aug-22 21:29N 66°20' E 014°08'0 0.0
2017-Aug-22 20:59N 66°20' E 014°08'2 4.3
2017-Aug-22 20:29N 66°18' E 014°04'5 9.5
2017-Aug-22 20:00N 66°16' E 013°54'5 9.5
2017-Aug-22 19:30N 66°15' E 013°42'5 9.6
2017-Aug-22 19:00N 66°15' E 013°31'5 9.3
2017-Aug-22 18:30N 66°14' E 013°19'4 9.1
2017-Aug-22 18:00N 66°11' E 013°10'4 8.6
2017-Aug-22 17:30N 66°10' E 013°01'4 8.3
2017-Aug-22 17:00N 66°08' E 012°51'4 8.5
2017-Aug-22 16:30N 66°06' E 012°43'4 8.6
2017-Aug-22 15:59N 66°02' E 012°36'4 8.6
2017-Aug-22 15:30N 65°59' E 012°29'4 8.9
2017-Aug-22 15:00N 65°55' E 012°23'4 8.5
2017-Aug-22 14:30N 65°51' E 012°22'5 9.2
2017-Aug-22 14:00N 65°47' E 012°19'4 8.7
2017-Aug-22 13:30N 65°42' E 012°16'4 8.9
2017-Aug-22 13:00N 65°38' E 012°13'4 8.2
2017-Aug-22 12:29N 65°35' E 012°07'4 8.7
2017-Aug-22 12:00N 65°31' E 012°01'5 9.3
2017-Aug-22 11:30N 65°27' E 011°56'5 9.0
2017-Aug-22 11:00N 65°23' E 011°59'3 6.8
2017-Aug-22 10:30N 65°20' E 012°01'5 9.2
2017-Aug-22 10:00N 65°15' E 011°56'5 9.3
2017-Aug-22 09:30N 65°11' E 011°52'5 9.2
2017-Aug-22 09:00N 65°07' E 011°49'4 9.0
2017-Aug-22 08:30N 65°03' E 011°44'5 9.4
2017-Aug-22 08:00N 64°59' E 011°36'5 9.3
2017-Aug-22 07:30N 64°56' E 011°28'5 9.4
2017-Aug-22 07:00N 64°53' E 011°19'510.1
2017-Aug-22 06:30N 64°50' E 011°11'5 9.3
2017-Aug-22 06:00N 64°47' E 011°03'5 9.0
2017-Aug-22 05:30N 64°43' E 010°56'4 9.0
2017-Aug-22 05:00N 64°40' E 010°48'4 9.0
2017-Aug-22 04:30N 64°37' E 010°40'4 8.7
2017-Aug-22 04:00N 64°34' E 010°33'4 8.9
2017-Aug-22 03:30N 64°31' E 010°26'4 8.5
2017-Aug-22 03:00N 64°28' E 010°19'4 8.3
2017-Aug-22 02:30N 64°25' E 010°12'4 8.3
2017-Aug-22 02:00N 64°22' E 010°06'4 8.7
2017-Aug-22 01:30N 64°19' E 009°59'4 8.5
2017-Aug-22 01:00N 64°16' E 009°52'4 8.5
2017-Aug-22 00:30N 64°12' E 009°47'5 9.3
2017-Aug-22 00:00N 64°08' E 009°42'5 9.0
2017-Aug-21 23:30N 64°04' E 009°37'4 8.7
2017-Aug-21 23:00N 64°00' E 009°33'4 8.9
2017-Aug-21 22:30N 63°56' E 009°29'5 9.2
2017-Aug-21 21:59N 63°52' E 009°24'4 8.7
2017-Aug-21 21:29N 63°48' E 009°20'4 8.9
2017-Aug-21 21:00N 63°44' E 009°17'4 8.7
2017-Aug-21 20:30N 63°39' E 009°16'5 8.9
2017-Aug-21 20:00N 63°35' E 009°16'4 9.1
2017-Aug-21 19:30N 63°31' E 009°10'511.0
2017-Aug-21 19:01N 63°29' E 008°59'5 9.9
2017-Aug-21 18:30N 63°27' E 008°49'5 9.5
2017-Aug-21 18:00N 63°25' E 008°39'5 9.7
2017-Aug-21 17:29N 63°23' E 008°29'4 9.3
2017-Aug-21 17:00N 63°21' E 008°21'5 9.6
2017-Aug-21 16:30N 63°17' E 008°13'5 9.4
2017-Aug-21 16:00N 63°15' E 008°04'5 9.5
2017-Aug-21 15:30N 63°13' E 007°55'5 9.3
2017-Aug-21 15:00N 63°10' E 007°46'5 9.4
2017-Aug-21 14:30N 63°08' E 007°37'5 9.2
2017-Aug-21 14:00N 63°05' E 007°29'4 9.0
2017-Aug-21 13:30N 63°03' E 007°20'5 9.0
2017-Aug-21 13:00N 63°02' E 007°10'4 8.9
2017-Aug-21 12:30N 62°60' E 007°01'4 8.8
2017-Aug-21 12:00N 62°58' E 006°52'4 8.8
2017-Aug-21 11:30N 62°55' E 006°46'4 8.9
2017-Aug-21 11:00N 62°51' E 006°41'5 9.4
2017-Aug-21 10:30N 62°47' E 006°36'5 9.5
2017-Aug-21 10:00N 62°43' E 006°30'5 9.7
2017-Aug-21 09:30N 62°39' E 006°24'5 9.9
2017-Aug-21 09:00N 62°36' E 006°16'3 6.8
2017-Aug-21 08:30N 62°33' E 006°10'5 9.2
2017-Aug-21 07:59N 62°29' E 006°07'4 8.8
2017-Aug-21 07:30N 62°25' E 006°03'5 9.6
2017-Aug-21 07:00N 62°21' E 006°08'5 9.6
2017-Aug-21 06:30N 62°17' E 006°01'5 9.5
2017-Aug-21 06:00N 62°14' E 005°54'5 9.4
2017-Aug-21 05:29N 62°12' E 005°45'5 9.4
2017-Aug-21 05:00N 62°11' E 005°35'4 8.8
2017-Aug-21 04:30N 62°11' E 005°26'4 7.6
2017-Aug-21 04:00N 62°12' E 005°18'4 8.3
2017-Aug-21 03:30N 62°13' E 005°10'4 8.4
2017-Aug-21 03:00N 62°10' E 005°04'4 8.7
2017-Aug-21 02:30N 62°06' E 005°06'4 8.7
2017-Aug-21 02:00N 62°02' E 005°09'5 9.1
2017-Aug-21 01:30N 61°57' E 005°09'4 8.3
2017-Aug-21 01:00N 61°53' E 005°10'4 7.5
2017-Aug-21 00:30N 61°51' E 005°16'4 8.8
2017-Aug-21 00:00N 61°48' E 005°08'5 9.3
2017-Aug-20 23:30N 61°45' E 005°01'4 8.6
2017-Aug-20 23:00N 61°41' E 004°58'4 7.8
2017-Aug-20 22:30N 61°38' E 005°01'2 1.7
2017-Aug-20 21:25N 61°37' E 005°04'0 0.0
2017-Aug-20 20:55N 61°37' E 005°04'0 0.0
2017-Aug-20 20:25N 61°37' E 005°04'0 0.0
2017-Aug-20 19:34N 61°37' E 005°04'0 0.0
2017-Aug-20 18:52N 61°37' E 005°04'0 0.0
2017-Aug-20 18:25N 61°37' E 005°04'0 0.0
2017-Aug-20 17:49N 61°37' E 005°04'2 6.4
2017-Aug-20 17:30N 61°37' E 005°00'5 9.6
2017-Aug-20 17:00N 61°42' E 004°57'510.4
2017-Aug-20 16:30N 61°47' E 005°03'510.3
2017-Aug-20 16:00N 61°49' E 005°12'3 6.0
2017-Aug-20 15:29N 61°52' E 005°13'4 8.7
2017-Aug-20 15:00N 61°56' E 005°07'510.3
2017-Aug-20 14:30N 62°01' E 005°09'510.6
2017-Aug-20 14:00N 62°06' E 005°06'5 9.7
2017-Aug-20 13:30N 62°11' E 005°04'4 9.1
2017-Aug-20 13:00N 62°14' E 005°12'5 9.5
2017-Aug-20 12:27N 62°11' E 005°21'4 9.6
2017-Aug-20 12:00N 62°12' E 005°30'510.0
2017-Aug-20 11:30N 62°11' E 005°40'5 9.8
2017-Aug-20 11:00N 62°13' E 005°50'5 9.3
2017-Aug-20 10:29N 62°16' E 005°57'5 9.3
2017-Aug-20 10:00N 62°19' E 006°04'4 8.3
2017-Aug-20 09:30N 62°23' E 006°05'4 8.6
2017-Aug-20 09:00N 62°28' E 006°04'4 8.5
2017-Aug-20 08:30N 62°31' E 006°09'5 9.1
2017-Aug-20 07:59N 62°35' E 006°14'4 9.0
2017-Aug-20 07:30N 62°38' E 006°21'4 8.8
2017-Aug-20 07:00N 62°41' E 006°27'4 9.0
2017-Aug-20 06:30N 62°45' E 006°32'5 9.0
2017-Aug-20 06:00N 62°49' E 006°37'4 8.9
2017-Aug-20 05:30N 62°53' E 006°43'5 8.8
2017-Aug-20 05:00N 62°56' E 006°48'4 8.1
2017-Aug-20 04:30N 62°59' E 006°55'4 7.9
2017-Aug-20 04:00N 63°00' E 007°03'4 8.2
2017-Aug-20 03:30N 63°02' E 007°12'4 8.2
2017-Aug-20 03:00N 63°03' E 007°20'4 8.5
2017-Aug-20 02:30N 63°05' E 007°28'4 8.6
2017-Aug-20 02:00N 63°07' E 007°37'4 7.8
2017-Aug-20 01:30N 63°04' E 007°41'1 1.4
2017-Aug-20 00:59N 63°03' E 007°40'0 0.0
2017-Aug-20 00:29N 63°03' E 007°40'0 0.0
2017-Aug-19 23:59N 63°03' E 007°40'0 0.0
2017-Aug-19 23:29N 63°03' E 007°40'0 0.0
2017-Aug-19 22:59N 63°03' E 007°40'0 0.0
2017-Aug-19 22:29N 63°03' E 007°40'0 0.0
2017-Aug-19 21:59N 63°03' E 007°40'0 0.0
2017-Aug-19 21:29N 63°03' E 007°40'0 0.0
2017-Aug-19 20:59N 63°03' E 007°40'0 0.0
2017-Aug-19 20:29N 63°03' E 007°40'0 0.0
2017-Aug-19 19:59N 63°03' E 007°40'0 0.0
2017-Aug-19 19:29N 63°03' E 007°40'0 0.0
2017-Aug-19 18:59N 63°03' E 007°40'0 0.0
2017-Aug-19 18:29N 63°03' E 007°40'2 3.7
2017-Aug-19 18:00N 63°05' E 007°41'3 7.0
2017-Aug-19 17:31N 63°07' E 007°34'510.0
2017-Aug-19 17:01N 63°04' E 007°25'5 9.9
2017-Aug-19 16:30N 63°03' E 007°15'5 9.9
2017-Aug-19 16:00N 63°01' E 007°05'510.0
2017-Aug-19 15:30N 62°59' E 006°54'5 9.8
2017-Aug-19 15:00N 62°55' E 006°48'10 9.8
2017-Aug-19 14:00N 62°47' E 006°36'5 9.8
2017-Aug-19 13:30N 62°43' E 006°30'5 9.8
2017-Aug-19 13:00N 62°39' E 006°24'5 9.4
2017-Aug-19 12:30N 62°36' E 006°16'4 9.1
2017-Aug-19 12:00N 62°32' E 006°10'5 8.9
2017-Aug-19 11:30N 62°28' E 006°05'4 8.9
2017-Aug-19 11:00N 62°26' E 005°56'4 8.7
2017-Aug-19 10:30N 62°24' E 005°49'5 9.0
2017-Aug-19 10:00N 62°20' E 005°45'4 9.0
2017-Aug-19 09:30N 62°18' E 005°36'5 9.1
2017-Aug-19 09:00N 62°17' E 005°26'5 9.4
2017-Aug-19 08:30N 62°16' E 005°17'5 9.7
2017-Aug-19 07:59N 62°13' E 005°08'5 9.1
2017-Aug-19 07:30N 62°09' E 005°04'5 9.7
2017-Aug-19 07:00N 62°04' E 005°07'5 9.7
2017-Aug-19 06:30N 61°59' E 005°10'4 9.0
2017-Aug-19 06:00N 61°55' E 005°07'5 9.0
2017-Aug-19 05:30N 61°52' E 005°15'3 6.5
2017-Aug-19 05:00N 61°49' E 005°12'5 9.4
2017-Aug-19 04:30N 61°46' E 005°03'4 9.0
2017-Aug-19 04:00N 61°43' E 004°58'5 9.6
2017-Aug-19 03:30N 61°38' E 004°59'4 8.7
2017-Aug-19 03:00N 61°34' E 004°59'5 9.3
2017-Aug-19 02:30N 61°29' E 004°59'5 9.6
2017-Aug-19 02:00N 61°24' E 004°59'5 9.8
2017-Aug-19 01:30N 61°20' E 005°03'4 7.8
2017-Aug-19 01:00N 61°17' E 004°57'4 7.9
2017-Aug-19 00:30N 61°13' E 004°57'5 9.6
2017-Aug-19 00:00N 61°09' E 005°01'5 9.5
2017-Aug-18 23:30N 61°04' E 005°00'5 8.9
2017-Aug-18 22:59N 61°02' E 004°53'4 8.5
2017-Aug-18 22:30N 60°59' E 004°46'5 9.8
2017-Aug-18 22:00N 60°54' E 004°46'5 9.5
2017-Aug-18 21:30N 60°49' E 004°44'510.4
2017-Aug-18 21:00N 60°44' E 004°48'510.1
2017-Aug-18 20:30N 60°40' E 004°52'510.0
2017-Aug-18 20:00N 60°35' E 004°55'510.1
2017-Aug-18 19:30N 60°30' E 004°59'510.3
2017-Aug-18 19:00N 60°26' E 005°03'5 9.4
2017-Aug-18 18:29N 60°22' E 005°10'5 9.2
2017-Aug-18 18:00N 60°18' E 005°12'5 9.2
2017-Aug-18 17:29N 60°13' E 005°11'5 9.9
2017-Aug-18 17:00N 60°09' E 005°16'5 9.9
2017-Aug-18 16:30N 60°05' E 005°20'510.2
2017-Aug-18 16:00N 59°59' E 005°22'510.0
2017-Aug-18 15:30N 59°56' E 005°29'510.0
2017-Aug-18 15:00N 59°51' E 005°33'9 9.2
2017-Aug-18 14:00N 59°43' E 005°27'510.5
2017-Aug-18 13:30N 59°39' E 005°20'510.2
2017-Aug-18 13:00N 59°34' E 005°15'5 9.6
2017-Aug-18 12:29N 59°30' E 005°13'510.1
2017-Aug-18 11:59N 59°25' E 005°15'1 2.5
2017-Aug-18 11:30N 59°24' E 005°16'0 0.0
2017-Aug-18 11:00N 59°24' E 005°16'0 0.0
2017-Aug-18 10:30N 59°24' E 005°16'3 7.0
2017-Aug-18 10:00N 59°21' E 005°19'5 9.3
2017-Aug-18 09:30N 59°16' E 005°20'2 4.6
2017-Aug-18 09:00N 59°14' E 005°21'5 9.5
2017-Aug-18 08:30N 59°09' E 005°23'4 8.9
2017-Aug-18 08:01N 59°07' E 005°30'5 9.3
2017-Aug-18 07:30N 59°03' E 005°36'4 7.0
2017-Aug-18 06:59N 58°60' E 005°40'0 0.0
2017-Aug-18 06:29N 58°60' E 005°40'0 0.0
2017-Aug-18 05:59N 58°60' E 005°40'0 0.0
2017-Aug-18 05:29N 58°60' E 005°40'0 0.0
2017-Aug-18 04:59N 58°60' E 005°40'0 0.0
2017-Aug-18 04:29N 58°60' E 005°40'0 0.0
2017-Aug-18 03:59N 58°60' E 005°40'0 0.0
2017-Aug-18 03:29N 58°60' E 005°40'0 0.3
2017-Aug-18 03:00N 59°00' E 005°40'4 7.5
2017-Aug-18 02:30N 59°02' E 005°34'5 9.7
2017-Aug-18 02:00N 58°57' E 005°33'2 4.3
2017-Aug-18 01:29N 58°55' E 005°36'0 0.0
2017-Aug-18 00:59N 58°55' E 005°36'0 0.0
2017-Aug-18 00:29N 58°55' E 005°36'0 0.0
2017-Aug-17 23:59N 58°55' E 005°36'0 0.0
2017-Aug-17 23:29N 58°55' E 005°36'0 0.0
2017-Aug-17 22:59N 58°55' E 005°36'0 0.0
2017-Aug-17 22:29N 58°55' E 005°36'0 0.0
2017-Aug-17 21:59N 58°55' E 005°36'0 0.0
2017-Aug-17 21:29N 58°55' E 005°36'0 0.0
2017-Aug-17 20:59N 58°55' E 005°36'0 0.0
2017-Aug-17 20:29N 58°55' E 005°36'0 0.0
2017-Aug-17 20:00N 58°55' E 005°36'3 5.3
2017-Aug-17 19:30N 58°58' E 005°33'5 9.7
2017-Aug-17 19:00N 59°02' E 005°32'5 9.4
2017-Aug-17 18:31N 59°07' E 005°31'5 9.4
2017-Aug-17 18:00N 59°12' E 005°29'4 8.6
2017-Aug-17 17:29N 59°15' E 005°23'4 7.5
2017-Aug-17 17:00N 59°18' E 005°20'510.0
2017-Aug-17 16:30N 59°23' E 005°17'2 4.8
2017-Aug-17 16:00N 59°25' E 005°14'0 0.0
2017-Aug-17 15:30N 59°25' E 005°14'0 0.0
2017-Aug-17 15:00N 59°25' E 005°14'0 0.0
2017-Aug-17 14:30N 59°25' E 005°14'0 0.0
2017-Aug-17 14:00N 59°25' E 005°14'0 0.0
2017-Aug-17 13:30N 59°25' E 005°14'0 0.0
2017-Aug-17 13:00N 59°25' E 005°14'0 0.0
2017-Aug-17 12:30N 59°25' E 005°14'0 0.0
2017-Aug-17 12:00N 59°25' E 005°14'0 0.0
2017-Aug-17 11:30N 59°25' E 005°14'0 0.0
2017-Aug-17 11:00N 59°25' E 005°14'4 7.8
2017-Aug-17 10:30N 59°21' E 005°19'4 9.1
2017-Aug-17 10:00N 59°17' E 005°19'0 0.0
2017-Aug-17 09:28N 59°17' E 005°19'0 0.0
2017-Aug-17 08:58N 59°17' E 005°19'0 0.0
2017-Aug-17 08:28N 59°17' E 005°19'0 0.0
2017-Aug-17 07:58N 59°17' E 005°19'0 0.0
2017-Aug-17 07:28N 59°17' E 005°19'0 0.0
2017-Aug-17 06:58N 59°17' E 005°19'0 0.0
2017-Aug-17 06:28N 59°17' E 005°19'0 0.0
2017-Aug-17 05:58N 59°17' E 005°19'0 0.0
2017-Aug-17 05:28N 59°17' E 005°19'0 0.0
2017-Aug-17 04:58N 59°17' E 005°19'0 0.0
2017-Aug-17 04:28N 59°17' E 005°19'0 0.0
2017-Aug-17 03:58N 59°17' E 005°19'0 0.0
2017-Aug-17 03:28N 59°17' E 005°19'0 0.0
2017-Aug-17 02:58N 59°17' E 005°19'0 0.0
2017-Aug-17 02:28N 59°17' E 005°19'0 0.0
2017-Aug-17 01:58N 59°17' E 005°19'0 0.0
2017-Aug-17 01:28N 59°17' E 005°19'0 0.0
2017-Aug-17 00:58N 59°17' E 005°19'0 0.0
2017-Aug-17 00:28N 59°17' E 005°19'0 0.0
2017-Aug-16 23:58N 59°17' E 005°19'0 0.0
2017-Aug-16 23:28N 59°17' E 005°19'0 0.0
2017-Aug-16 22:58N 59°17' E 005°19'0 0.0
2017-Aug-16 22:28N 59°17' E 005°19'0 0.0
2017-Aug-16 21:58N 59°17' E 005°19'0 0.0
2017-Aug-16 21:28N 59°17' E 005°19'0 0.0
2017-Aug-16 20:58N 59°17' E 005°19'0 0.0
2017-Aug-16 20:28N 59°17' E 005°19'0 0.0
2017-Aug-16 19:58N 59°17' E 005°19'0 0.0
2017-Aug-16 19:28N 59°17' E 005°19'0 0.0
2017-Aug-16 18:58N 59°17' E 005°19'0 0.0
2017-Aug-16 18:28N 59°17' E 005°19'0 0.0
2017-Aug-16 17:58N 59°17' E 005°19'0 0.0
2017-Aug-16 17:28N 59°17' E 005°19'0 0.0
2017-Aug-16 16:58N 59°17' E 005°19'0 0.0
2017-Aug-16 16:28N 59°17' E 005°19'0 0.0
2017-Aug-16 15:58N 59°17' E 005°19'0 0.0
2017-Aug-16 15:28N 59°17' E 005°19'0 0.0
2017-Aug-16 14:58N 59°17' E 005°19'0 0.0
2017-Aug-16 14:28N 59°17' E 005°19'0 0.0
2017-Aug-16 13:58N 59°17' E 005°19'0 0.0
2017-Aug-16 13:28N 59°17' E 005°19'0 0.0
2017-Aug-16 12:58N 59°17' E 005°19'0 0.0
2017-Aug-16 12:28N 59°17' E 005°19'0 0.0
2017-Aug-16 11:58N 59°17' E 005°19'0 0.0
2017-Aug-16 11:28N 59°17' E 005°19'0 0.0
2017-Aug-16 10:58N 59°17' E 005°19'0 0.0
2017-Aug-16 10:28N 59°17' E 005°19'0 0.4
2017-Aug-16 10:00N 59°17' E 005°19'4 8.6
2017-Aug-16 09:30N 59°21' E 005°19'5 9.0
2017-Aug-16 09:00N 59°25' E 005°14'5 9.5
2017-Aug-16 08:30N 59°30' E 005°12'4 8.9
2017-Aug-16 08:00N 59°34' E 005°13'5 9.4
2017-Aug-16 07:30N 59°38' E 005°18'5 9.4
2017-Aug-16 06:59N 59°42' E 005°24'5 9.6
2017-Aug-16 06:30N 59°46' E 005°20'5 9.7
2017-Aug-16 05:59N 59°51' E 005°16'5 9.3
2017-Aug-16 05:30N 59°55' E 005°11'4 7.4
2017-Aug-16 05:00N 59°58' E 005°15'5 9.1
2017-Aug-16 04:30N 60°02' E 005°19'5 9.7
2017-Aug-16 04:00N 60°07' E 005°18'5 9.6
2017-Aug-16 03:30N 60°11' E 005°13'5 9.4
2017-Aug-16 03:00N 60°15' E 005°09'5 9.2
2017-Aug-16 02:30N 60°20' E 005°12'4 7.7
2017-Aug-16 02:00N 60°23' E 005°09'5 9.3
2017-Aug-16 01:30N 60°26' E 005°02'5 9.4
2017-Aug-16 01:00N 60°30' E 004°58'5 9.4
2017-Aug-16 00:30N 60°35' E 004°54'5 9.5
2017-Aug-16 00:00N 60°39' E 004°51'5 9.2
2017-Aug-15 23:30N 60°44' E 004°48'5 9.6
2017-Aug-15 23:00N 60°48' E 004°44'4 8.6
2017-Aug-15 22:30N 60°52' E 004°46'5 9.4
2017-Aug-15 22:00N 60°57' E 004°45'4 8.6
2017-Aug-15 21:30N 61°01' E 004°50'510.0
2017-Aug-15 21:00N 61°04' E 004°58'5 9.2
2017-Aug-15 20:30N 61°08' E 005°02'4 9.0
2017-Aug-15 20:00N 61°12' E 004°59'4 8.7
2017-Aug-15 19:30N 61°16' E 004°55'5 9.1
2017-Aug-15 19:00N 61°19' E 005°03'4 8.5
2017-Aug-15 18:30N 61°23' E 005°01'4 8.8
2017-Aug-15 18:00N 61°27' E 004°59'5 8.9
2017-Aug-15 17:30N 61°31' E 005°00'4 8.4
2017-Aug-15 17:00N 61°35' E 004°57'4 8.4
2017-Aug-15 16:30N 61°40' E 004°59'4 8.2
2017-Aug-15 16:00N 61°44' E 004°58'5 9.1
2017-Aug-15 15:30N 61°47' E 005°04'5 9.7
2017-Aug-15 15:00N 61°50' E 005°13'3 5.6
2017-Aug-15 14:30N 61°52' E 005°12'4 7.8
2017-Aug-15 13:59N 61°56' E 005°07'4 8.6
2017-Aug-15 13:30N 61°60' E 005°10'5 9.4
2017-Aug-15 13:00N 62°04' E 005°07'5 9.2
2017-Aug-15 12:30N 62°09' E 005°05'4 7.5
2017-Aug-15 12:00N 62°12' E 005°06'5 9.2
2017-Aug-15 11:30N 62°15' E 005°14'5 9.2
2017-Aug-15 11:00N 62°17' E 005°23'5 9.7
2017-Aug-15 10:30N 62°18' E 005°33'5 9.9
2017-Aug-15 10:00N 62°19' E 005°44'4 8.6
2017-Aug-15 09:30N 62°23' E 005°48'5 9.5
2017-Aug-15 08:59N 62°26' E 005°56'5 9.6
2017-Aug-15 08:29N 62°28' E 006°05'4 9.0
2017-Aug-15 08:00N 62°32' E 006°10'5 9.6
2017-Aug-15 07:30N 62°36' E 006°16'510.0
2017-Aug-15 07:00N 62°39' E 006°24'5 9.9
2017-Aug-15 06:30N 62°44' E 006°30'5 9.8
2017-Aug-15 06:00N 62°48' E 006°36'5 9.8
2017-Aug-15 05:30N 62°52' E 006°42'5 9.8
2017-Aug-15 05:00N 62°56' E 006°48'5 9.1
2017-Aug-15 04:30N 62°59' E 006°55'5 9.5
2017-Aug-15 04:00N 63°01' E 007°05'5 9.5
2017-Aug-15 03:30N 63°03' E 007°14'5 9.5
2017-Aug-15 03:00N 63°04' E 007°24'5 9.5
2017-Aug-15 02:30N 63°07' E 007°33'4 7.2
2017-Aug-15 02:00N 63°06' E 007°41'3 4.9
2017-Aug-15 01:29N 63°03' E 007°40'0 0.0
2017-Aug-15 00:59N 63°03' E 007°40'0 0.0
2017-Aug-15 00:29N 63°03' E 007°40'0 0.0
2017-Aug-14 23:59N 63°03' E 007°40'0 0.0
2017-Aug-14 23:29N 63°03' E 007°40'0 0.0
2017-Aug-14 22:59N 63°03' E 007°40'0 0.0
2017-Aug-14 22:29N 63°03' E 007°40'0 0.0
2017-Aug-14 21:59N 63°03' E 007°40'0 0.0
2017-Aug-14 21:29N 63°03' E 007°40'2 4.1
2017-Aug-14 21:00N 63°05' E 007°41'4 8.4
2017-Aug-14 20:30N 63°09' E 007°44'5 9.1
2017-Aug-14 20:01N 63°12' E 007°52'5 9.2
2017-Aug-14 19:30N 63°15' E 008°01'5 9.1
2017-Aug-14 19:00N 63°17' E 008°10'4 8.9
2017-Aug-14 18:30N 63°19' E 008°17'4 8.7
2017-Aug-14 18:00N 63°22' E 008°25'5 8.9
2017-Aug-14 17:30N 63°24' E 008°34'4 8.4
2017-Aug-14 17:00N 63°26' E 008°43'4 8.4
2017-Aug-14 16:30N 63°27' E 008°51'4 8.4
2017-Aug-14 16:00N 63°29' E 009°00'4 8.0
2017-Aug-14 15:30N 63°31' E 009°08'4 7.1
2017-Aug-14 15:00N 63°33' E 009°15'5 7.5
2017-Aug-14 14:18N 63°35' E 009°25'2 8.0
2017-Aug-14 14:00N 63°37' E 009°28'5 9.2
2017-Aug-14 13:30N 63°42' E 009°30'5 9.0
2017-Aug-14 13:00N 63°46' E 009°32'4 8.3
2017-Aug-14 12:30N 63°50' E 009°37'4 8.6
2017-Aug-14 12:00N 63°53' E 009°44'4 8.7
2017-Aug-14 11:30N 63°57' E 009°49'4 8.6
2017-Aug-14 11:00N 63°60' E 009°56'4 8.3
2017-Aug-14 10:29N 64°03' E 010°02'3 7.1
2017-Aug-14 10:00N 64°06' E 010°01'4 8.0
2017-Aug-14 09:30N 64°09' E 010°07'4 8.5
2017-Aug-14 09:00N 64°13' E 010°12'4 8.1
2017-Aug-14 08:29N 64°16' E 010°19'4 8.0
2017-Aug-14 08:00N 64°19' E 010°24'4 7.8
2017-Aug-14 07:30N 64°22' E 010°28'4 7.9
2017-Aug-14 07:00N 64°26' E 010°27'3 6.6
2017-Aug-14 06:30N 64°29' E 010°32'3 7.1
2017-Aug-14 06:00N 64°32' E 010°35'3 6.4
2017-Aug-14 05:30N 64°35' E 010°39'3 6.5
2017-Aug-14 05:00N 64°38' E 010°42'3 6.0
2017-Aug-14 04:30N 64°40' E 010°47'3 6.2
2017-Aug-14 04:00N 64°42' E 010°52'3 6.9
2017-Aug-14 03:31N 64°44' E 010°58'4 7.6
2017-Aug-14 03:00N 64°47' E 011°04'4 8.3
2017-Aug-14 02:30N 64°50' E 011°11'4 7.9
2017-Aug-14 02:00N 64°53' E 011°18'4 8.4
2017-Aug-14 01:31N 64°56' E 011°25'4 8.6
2017-Aug-14 01:00N 64°58' E 011°34'4 8.3
2017-Aug-14 00:31N 65°01' E 011°41'4 8.8
2017-Aug-14 00:00N 65°05' E 011°46'5 9.4
2017-Aug-13 23:30N 65°09' E 011°50'4 8.6
2017-Aug-13 23:00N 65°13' E 011°54'4 8.6
2017-Aug-13 22:30N 65°17' E 011°58'4 8.6
2017-Aug-13 22:00N 65°21' E 012°02'4 7.4
2017-Aug-13 21:30N 65°24' E 011°58'4 8.0
2017-Aug-13 21:00N 65°28' E 011°57'4 8.1
2017-Aug-13 20:30N 65°32' E 012°02'4 7.8
2017-Aug-13 20:00N 65°35' E 012°08'4 8.6
2017-Aug-13 19:30N 65°38' E 012°13'5 9.1
2017-Aug-13 19:00N 65°43' E 012°16'5 9.0
2017-Aug-13 18:30N 65°47' E 012°20'4 8.9
2017-Aug-13 18:00N 65°51' E 012°22'4 8.4
2017-Aug-13 17:30N 65°56' E 012°24'4 7.9
2017-Aug-13 16:59N 65°59' E 012°28'4 8.1
2017-Aug-13 16:30N 66°02' E 012°35'4 8.1
2017-Aug-13 16:00N 66°05' E 012°41'4 8.0
2017-Aug-13 15:30N 66°08' E 012°48'  

Dump ship's entire track history